San Cosme, Argentina
Current Conditions -  °F | °C
As of 1:00 AM on Monday 22 Dec 2014 (Local Time) from SARC Reporting Station
Overcast Overcast  
Wind Chill: 68°   Ceiling: 10000
Heat Index: 68°   Visibility: 6mi
Dew Point: 63°   Wind: 13mph
Humidity: 83%   Direction: 180°S
Pressure: 29.85"   Gusts: NA
Location:  27.37°S, 58.52°W
Report Text: SARC 220400Z 18011KT 9999 SCT015 OVC10020/17 Q1011
Loading
Personal Weather Stations






























Interactive Weather Map New forecast layout! Learn more

10-Day Weather Forecast

Advertisements
Track Severe Weather on mobile